Time,TemperatureF,DewpointF,PressureIn,WindDirection,WindDirectionDegrees,WindSpeedMPH,WindSpeedGustMPH,Humidity,HourlyPrecipIn,Conditions,Clouds,dailyrainin,SolarRadiationWatts/m^2,SoftwareType,DateUTC
2013-04-22 00:01:00,77.0,22.0,-100.00,SW,225,5.0,13.0,13,0.00,,,0.00,0.000000,,2013-04-22 07:01:00,
2013-04-22 00:11:00,77.0,22.0,-100.00,SW,225,5.0,13.0,13,0.00,,,0.00,0.000000,,2013-04-22 07:11:00,
2013-04-22 00:21:00,77.0,22.0,-100.00,SW,225,5.0,13.0,13,0.00,,,0.00,0.000000,,2013-04-22 07:21:00,
2013-04-22 00:52:00,75.0,21.0,-100.00,SW,220,5.0,12.0,13,0.00,,,0.00,0.000000,,2013-04-22 07:52:00,
2013-04-22 01:01:00,75.0,21.0,-100.00,SW,220,5.0,12.0,13,0.00,,,0.00,0.000000,,2013-04-22 08:01:00,
2013-04-22 01:52:00,73.0,26.0,-100.00,South,185,0.0,8.0,17,0.00,,,0.00,0.000000,,2013-04-22 08:52:00,
2013-04-22 02:01:00,73.0,26.0,-100.00,South,185,0.0,8.0,17,0.00,,,0.00,0.000000,,2013-04-22 09:01:00,
2013-04-22 02:11:00,73.0,26.0,-100.00,South,185,0.0,8.0,17,0.00,,,0.00,0.000000,,2013-04-22 09:11:00,
2013-04-22 02:21:00,73.0,26.0,-100.00,South,185,0.0,8.0,17,0.00,,,0.00,0.000000,,2013-04-22 09:21:00,
2013-04-22 02:52:00,72.0,26.0,-100.00,NNW,335,0.0,6.0,18,0.00,,,0.00,0.000000,,2013-04-22 09:52:00,
2013-04-22 03:03:00,72.0,26.0,-100.00,NNW,335,0.0,6.0,18,0.00,,,0.00,0.000000,,2013-04-22 10:03:00,
2013-04-22 03:12:00,72.0,26.0,-100.00,NNW,335,0.0,6.0,18,0.00,,,0.00,0.000000,,2013-04-22 10:12:00,
2013-04-22 03:22:00,72.0,26.0,-100.00,NNW,335,0.0,6.0,18,0.00,,,0.00,0.000000,,2013-04-22 10:22:00,
2013-04-22 03:52:00,70.0,27.0,-100.00,SE,142,0.0,4.0,20,0.00,,,0.00,0.000000,,2013-04-22 10:52:00,
2013-04-22 04:02:00,70.0,27.0,-100.00,SE,142,0.0,4.0,20,0.00,,,0.00,0.000000,,2013-04-22 11:02:00,
2013-04-22 04:12:00,70.0,27.0,-100.00,SE,142,0.0,4.0,20,0.00,,,0.00,0.000000,,2013-04-22 11:12:00,
2013-04-22 04:22:00,70.0,27.0,-100.00,SE,142,0.0,4.0,20,0.00,,,0.00,0.000000,,2013-04-22 11:22:00,
2013-04-22 04:52:00,68.0,28.0,-100.00,North,9,3.0,7.0,22,0.00,,,0.00,0.000000,,2013-04-22 11:52:00,
2013-04-22 05:01:00,68.0,28.0,-100.00,North,9,3.0,7.0,22,0.00,,,0.00,0.000000,,2013-04-22 12:01:00,
2013-04-22 05:12:00,68.0,28.0,-100.00,North,9,3.0,7.0,22,0.00,,,0.00,0.000000,,2013-04-22 12:12:00,
2013-04-22 05:21:00,68.0,28.0,-100.00,North,9,3.0,7.0,22,0.00,,,0.00,0.000000,,2013-04-22 12:21:00,
2013-04-22 05:52:00,65.0,37.0,-100.00,South,172,0.0,4.0,36,0.00,,,0.00,0.000000,,2013-04-22 12:52:00,
2013-04-22 06:01:00,65.0,37.0,-100.00,South,172,0.0,4.0,36,0.00,,,0.00,0.000000,,2013-04-22 13:01:00,
2013-04-22 06:53:00,65.0,25.0,-100.00,SE,146,0.0,4.0,22,0.00,,,0.00,9.000000,,2013-04-22 13:53:00,
2013-04-22 07:02:00,65.0,25.0,-100.00,SE,146,0.0,4.0,22,0.00,,,0.00,9.000000,,2013-04-22 14:02:00,
2013-04-22 07:11:00,65.0,25.0,-100.00,SE,146,0.0,4.0,22,0.00,,,0.00,9.000000,,2013-04-22 14:11:00,
2013-04-22 07:21:00,65.0,25.0,-100.00,SE,146,0.0,4.0,22,0.00,,,0.00,9.000000,,2013-04-22 14:21:00,
2013-04-22 07:52:00,71.0,40.0,-100.00,West,278,0.0,1.0,33,0.00,,,0.00,140.000000,,2013-04-22 14:52:00,
2013-04-22 08:53:00,74.0,22.0,-100.00,SSW,195,3.0,6.0,14,0.00,,,0.00,379.000000,,2013-04-22 15:53:00,
2013-04-22 09:02:00,74.0,22.0,-100.00,SSW,195,3.0,6.0,14,0.00,,,0.00,379.000000,,2013-04-22 16:02:00,
2013-04-22 09:52:00,82.0,22.0,-100.00,SSE,168,3.0,6.0,11,0.00,,,0.00,648.000000,,2013-04-22 16:52:00,
2013-04-22 10:02:00,82.0,22.0,-100.00,SSE,168,3.0,6.0,11,0.00,,,0.00,648.000000,,2013-04-22 17:02:00,
2013-04-22 10:52:00,85.0,22.0,-100.00,South,186,2.0,8.0,10,0.00,,,0.00,930.000000,,2013-04-22 17:52:00,
2013-04-22 11:01:00,85.0,22.0,-100.00,South,186,2.0,8.0,10,0.00,,,0.00,930.000000,,2013-04-22 18:01:00,
2013-04-22 11:12:00,85.0,22.0,-100.00,South,186,2.0,8.0,10,0.00,,,0.00,930.000000,,2013-04-22 18:12:00,
2013-04-22 11:21:00,85.0,22.0,-100.00,South,186,2.0,8.0,10,0.00,,,0.00,930.000000,,2013-04-22 18:21:00,
2013-04-22 11:52:00,90.0,28.0,-100.00,SSW,205,7.0,13.0,11,0.00,,,0.00,1109.000000,,2013-04-22 18:52:00,
2013-04-22 12:01:00,90.0,28.0,-100.00,SSW,205,7.0,13.0,11,0.00,,,0.00,1109.000000,,2013-04-22 19:01:00,
2013-04-22 12:11:00,90.0,28.0,-100.00,SSW,205,7.0,13.0,11,0.00,,,0.00,1109.000000,,2013-04-22 19:11:00,
2013-04-22 12:21:00,90.0,28.0,-100.00,SSW,205,7.0,13.0,11,0.00,,,0.00,1109.000000,,2013-04-22 19:21:00,
2013-04-22 12:52:00,90.0,28.0,-100.00,SSW,212,10.0,18.0,11,0.00,,,0.00,1201.000000,,2013-04-22 19:52:00,
2013-04-22 13:02:00,90.0,28.0,-100.00,SSW,212,10.0,18.0,11,0.00,,,0.00,1201.000000,,2013-04-22 20:02:00,
2013-04-22 13:11:00,90.0,28.0,-100.00,SSW,212,10.0,18.0,11,0.00,,,0.00,1201.000000,,2013-04-22 20:11:00,
2013-04-22 13:22:00,90.0,28.0,-100.00,SSW,212,10.0,18.0,11,0.00,,,0.00,1201.000000,,2013-04-22 20:22:00,
2013-04-22 13:52:00,93.0,31.0,-100.00,SSW,207,11.0,22.0,11,0.00,,,0.00,1220.000000,,2013-04-22 20:52:00,
2013-04-22 14:02:00,93.0,31.0,-100.00,SSW,207,11.0,22.0,11,0.00,,,0.00,1220.000000,,2013-04-22 21:02:00,
2013-04-22 14:11:00,93.0,31.0,-100.00,SSW,207,11.0,22.0,11,0.00,,,0.00,1220.000000,,2013-04-22 21:11:00,
2013-04-22 14:21:00,93.0,31.0,-100.00,SSW,207,11.0,22.0,11,0.00,,,0.00,1220.000000,,2013-04-22 21:21:00,
2013-04-22 14:53:00,94.0,29.0,-100.00,SSW,209,8.0,21.0,10,0.00,,,0.00,1158.000000,,2013-04-22 21:53:00,
2013-04-22 15:02:00,94.0,29.0,-100.00,SSW,209,8.0,21.0,10,0.00,,,0.00,1158.000000,,2013-04-22 22:02:00,
2013-04-22 15:12:00,94.0,29.0,-100.00,SSW,209,8.0,21.0,10,0.00,,,0.00,1158.000000,,2013-04-22 22:12:00,
2013-04-22 15:22:00,94.0,29.0,-100.00,SSW,209,8.0,21.0,10,0.00,,,0.00,1158.000000,,2013-04-22 22:22:00,
2013-04-22 15:52:00,94.0,31.0,-100.00,SW,222,10.0,21.0,11,0.00,,,-99.99,1016.000000,,2013-04-22 22:52:00,
2013-04-22 16:02:00,94.0,31.0,-100.00,SW,222,10.0,21.0,11,0.00,,,-99.99,1016.000000,,2013-04-22 23:02:00,
2013-04-22 16:11:00,94.0,31.0,-100.00,SW,222,10.0,21.0,11,0.00,,,-99.99,1016.000000,,2013-04-22 23:11:00,
2013-04-22 16:21:00,94.0,31.0,-100.00,SW,222,10.0,21.0,11,0.00,,,-99.99,1016.000000,,2013-04-22 23:21:00,
2013-04-22 16:52:00,97.0,34.0,-100.00,SW,219,8.0,19.0,11,0.00,,,0.00,806.000000,,2013-04-22 23:52:00,
2013-04-22 17:01:00,97.0,34.0,-100.00,SW,219,8.0,19.0,11,0.00,,,0.00,806.000000,,2013-04-23 00:01:00,
2013-04-22 17:12:00,97.0,34.0,-100.00,SW,219,8.0,19.0,11,0.00,,,0.00,806.000000,,2013-04-23 00:12:00,
2013-04-22 17:21:00,97.0,34.0,-100.00,SW,219,8.0,19.0,11,0.00,,,0.00,806.000000,,2013-04-23 00:21:00,
2013-04-22 17:52:00,94.0,29.0,-100.00,SSW,213,9.0,20.0,10,0.00,,,0.00,485.000000,,2013-04-23 00:52:00,
2013-04-22 18:01:00,94.0,29.0,-100.00,SSW,213,9.0,20.0,10,0.00,,,0.00,485.000000,,2013-04-23 01:01:00,
2013-04-22 18:52:00,91.0,29.0,-100.00,SW,228,10.0,18.0,11,0.00,,,0.00,53.000000,,2013-04-23 01:52:00,
2013-04-22 19:01:00,91.0,29.0,-100.00,SW,228,10.0,18.0,11,0.00,,,0.00,53.000000,,2013-04-23 02:01:00,
2013-04-22 19:12:00,91.0,29.0,-100.00,SW,228,10.0,18.0,11,0.00,,,0.00,53.000000,,2013-04-23 02:12:00,
2013-04-22 19:21:00,91.0,29.0,-100.00,SW,228,10.0,18.0,11,0.00,,,0.00,53.000000,,2013-04-23 02:21:00,
2013-04-22 19:52:00,86.0,38.0,-100.00,South,183,7.0,15.0,18,0.00,,,0.00,19.000000,,2013-04-23 02:52:00,
2013-04-22 20:01:00,86.0,38.0,-100.00,South,183,7.0,15.0,18,0.00,,,0.00,19.000000,,2013-04-23 03:01:00,
2013-04-22 20:11:00,86.0,38.0,-100.00,South,183,7.0,15.0,18,0.00,,,0.00,19.000000,,2013-04-23 03:11:00,
2013-04-22 20:21:00,86.0,38.0,-100.00,South,183,7.0,15.0,18,0.00,,,0.00,19.000000,,2013-04-23 03:21:00,
2013-04-22 20:53:00,82.0,39.0,-100.00,South,190,5.0,13.0,22,0.00,,,0.00,0.000000,,2013-04-23 03:53:00,
2013-04-22 21:03:00,82.0,39.0,-100.00,South,190,5.0,13.0,22,0.00,,,0.00,0.000000,,2013-04-23 04:03:00,
2013-04-22 21:12:00,82.0,39.0,-100.00,South,190,5.0,13.0,22,0.00,,,0.00,0.000000,,2013-04-23 04:12:00,
2013-04-22 21:23:00,82.0,39.0,-100.00,South,190,5.0,13.0,22,0.00,,,0.00,0.000000,,2013-04-23 04:23:00,
2013-04-22 21:53:00,81.0,33.0,-100.00,SW,223,10.0,15.0,18,0.00,,,0.00,0.000000,,2013-04-23 04:53:00,
2013-04-22 22:02:00,81.0,33.0,-100.00,SW,223,10.0,15.0,18,0.00,,,0.00,0.000000,,2013-04-23 05:02:00,
2013-04-22 22:12:00,81.0,33.0,-100.00,SW,223,10.0,15.0,18,0.00,,,0.00,0.000000,,2013-04-23 05:12:00,
2013-04-22 22:21:00,81.0,33.0,-100.00,SW,223,10.0,15.0,18,0.00,,,0.00,0.000000,,2013-04-23 05:21:00,
2013-04-22 22:52:00,77.0,32.0,-100.00,SW,226,9.0,14.0,19,0.00,,,0.00,0.000000,,2013-04-23 05:52:00,
2013-04-22 23:01:00,77.0,32.0,-100.00,SW,226,9.0,14.0,19,0.00,,,0.00,0.000000,,2013-04-23 06:01:00,
2013-04-22 23:12:00,77.0,32.0,-100.00,SW,226,9.0,14.0,19,0.00,,,0.00,0.000000,,2013-04-23 06:12:00,
2013-04-22 23:21:00,77.0,32.0,-100.00,SW,226,9.0,14.0,19,0.00,,,0.00,0.000000,,2013-04-23 06:21:00,
2013-04-22 23:52:00,77.0,30.0,-100.00,SW,224,5.0,17.0,18,0.00,,,0.00,0.000000,,2013-04-23 06:52:00,